Carron, United Kingdom

10:14 AM GMT on December 06, 2016 (GMT +0000)
| | Change Station

Elev -9999 ft 0.00 °N, 0.00 °E | Updated

Cloudy
Cloudy
40 °F
Feels Like 32 °F
N
11
Wind Variable Wind from South
Gusts mph

Today
High -- | Low -- °F
--% Chance of Precip.
Yesterday
High -- | Low -- °F
Precip. -- in
Pressure 30.21 in
Visibility 4.3 miles
Clouds Few 1500 ft
Overcast 2200 ft
Windchill 32 °F
Dew Point 40 °F
Humidity 100%
Rainfall --
Snow Depth Not available.
8:30 AM 3:42 PM
Waxing Crescent, 40% visible
METAR EGPH 060950Z 32001KT 7000 FEW015 OVC022 00/00 Q1023
Pressure 30.21 in
Visibility 4.3 miles
Clouds Few 1500 ft
Overcast 2200 ft
Windchill 32 °F
Dew Point 40 °F
Humidity 100%
Rainfall --
Snow Depth Not available.
8:30 AM 3:42 PM
Waxing Crescent, 40% visible
METAR EGPH 060950Z 32001KT 7000 FEW015 OVC022 00/00 Q1023

10-Day Weather Forecast

×

Almanac

Astronomy

Dec. 06, 2016 Rise Set
Actual Time
Civil Twilight
Nautical Twilight
Astronomical Twilight
Moon
Length of Visible Light
Length of Day
Tomorrow will be .
, % of the Moon is Illuminated

Today's Extremes

Country Highs Country Lows

Community

WunderPhotos

Upload Photos

1,955,935 photos uploaded!

WunderBlog® & News

Nearby

Air Quality

  Air Quality AQ Index Pollutant
Not available.

Snow Depth

Station Depth Elevation

Earthquake Activity

City Distance Mag. Time & Date
Minimum magnitude displayed is 2.5.

Coastal Water Temperatures

Place Temperature

Stations

Nearby Weather Stations

Station Location Temp. Windchill Dew Point Humidity Wind Precip. Elev Updated Type